sensor_id;sensor_type;location;lat;lon;timestamp;temperature;humidity
14397;DHT22;50653;47.810;13.022;2023-10-19T00:01:09;10.20;99.90
14397;DHT22;50653;47.810;13.022;2023-10-19T00:03:36;10.20;99.90
14397;DHT22;50653;47.810;13.022;2023-10-19T00:06:01;10.20;99.90
14397;DHT22;50653;47.810;13.022;2023-10-19T00:08:28;10.20;99.90
14397;DHT22;50653;47.810;13.022;2023-10-19T00:11:02;10.20;99.90
14397;DHT22;50653;47.810;13.022;2023-10-19T00:13:36;10.10;99.90
14397;DHT22;50653;47.810;13.022;2023-10-19T00:16:04;10.10;99.90
14397;DHT22;50653;47.810;13.022;2023-10-19T00:18:56;10.10;99.90
14397;DHT22;50653;47.810;13.022;2023-10-19T00:21:25;10.00;99.90
14397;DHT22;50653;47.810;13.022;2023-10-19T00:23:53;10.00;99.90
14397;DHT22;50653;47.810;13.022;2023-10-19T00:26:23;10.00;99.90
14397;DHT22;50653;47.810;13.022;2023-10-19T00:29:00;10.00;99.90
14397;DHT22;50653;47.810;13.022;2023-10-19T00:31:40;10.00;99.90
14397;DHT22;50653;47.810;13.022;2023-10-19T00:34:06;10.00;99.90
14397;DHT22;50653;47.810;13.022;2023-10-19T00:36:32;10.00;99.90
14397;DHT22;50653;47.810;13.022;2023-10-19T00:39:00;9.90;99.90
14397;DHT22;50653;47.810;13.022;2023-10-19T00:41:38;9.90;99.90
14397;DHT22;50653;47.810;13.022;2023-10-19T00:44:06;9.80;99.90
14397;DHT22;50653;47.810;13.022;2023-10-19T00:46:39;9.80;99.90
14397;DHT22;50653;47.810;13.022;2023-10-19T00:49:08;9.80;99.90
14397;DHT22;50653;47.810;13.022;2023-10-19T00:51:55;9.70;99.90
14397;DHT22;50653;47.810;13.022;2023-10-19T00:54:33;9.70;99.90
14397;DHT22;50653;47.810;13.022;2023-10-19T00:57:06;9.70;99.90
14397;DHT22;50653;47.810;13.022;2023-10-19T00:59:37;9.70;99.90
14397;DHT22;50653;47.810;13.022;2023-10-19T01:02:09;9.70;99.90
14397;DHT22;50653;47.810;13.022;2023-10-19T01:04:55;9.60;99.90
14397;DHT22;50653;47.810;13.022;2023-10-19T01:07:22;9.60;99.90
14397;DHT22;50653;47.810;13.022;2023-10-19T01:10:03;9.70;99.90
14397;DHT22;50653;47.810;13.022;2023-10-19T01:12:31;9.60;99.90
14397;DHT22;50653;47.810;13.022;2023-10-19T01:15:08;9.60;99.90
14397;DHT22;50653;47.810;13.022;2023-10-19T01:17:49;9.70;99.90
14397;DHT22;50653;47.810;13.022;2023-10-19T01:20:25;9.70;99.90
14397;DHT22;50653;47.810;13.022;2023-10-19T01:23:08;9.70;99.90
14397;DHT22;50653;47.810;13.022;2023-10-19T01:28:36;9.70;99.90
14397;DHT22;50653;47.810;13.022;2023-10-19T01:31:16;9.70;99.90
14397;DHT22;50653;47.810;13.022;2023-10-19T01:33:43;9.70;99.90
14397;DHT22;50653;47.810;13.022;2023-10-19T01:36:10;9.70;99.90
14397;DHT22;50653;47.810;13.022;2023-10-19T01:38:38;9.70;99.90
14397;DHT22;50653;47.810;13.022;2023-10-19T01:41:05;9.70;99.90
14397;DHT22;50653;47.810;13.022;2023-10-19T01:43:51;9.70;99.90
14397;DHT22;50653;47.810;13.022;2023-10-19T01:46:21;9.70;99.90
14397;DHT22;50653;47.810;13.022;2023-10-19T01:48:48;9.80;99.90
14397;DHT22;50653;47.810;13.022;2023-10-19T01:51:25;9.70;99.90
14397;DHT22;50653;47.810;13.022;2023-10-19T01:53:52;9.70;99.90
14397;DHT22;50653;47.810;13.022;2023-10-19T01:56:21;9.70;99.90
14397;DHT22;50653;47.810;13.022;2023-10-19T01:58:48;9.70;99.90
14397;DHT22;50653;47.810;13.022;2023-10-19T02:01:15;9.70;99.90
14397;DHT22;50653;47.810;13.022;2023-10-19T02:03:55;9.70;99.90
14397;DHT22;50653;47.810;13.022;2023-10-19T02:06:26;9.70;99.90
14397;DHT22;50653;47.810;13.022;2023-10-19T02:09:05;9.60;99.90
14397;DHT22;50653;47.810;13.022;2023-10-19T02:11:44;9.60;99.90
14397;DHT22;50653;47.810;13.022;2023-10-19T02:14:14;9.40;99.90
14397;DHT22;50653;47.810;13.022;2023-10-19T02:16:46;9.40;99.90
14397;DHT22;50653;47.810;13.022;2023-10-19T02:19:19;9.40;99.90
14397;DHT22;50653;47.810;13.022;2023-10-19T02:21:50;9.40;99.90
14397;DHT22;50653;47.810;13.022;2023-10-19T02:24:18;9.40;99.90
14397;DHT22;50653;47.810;13.022;2023-10-19T02:26:45;9.40;99.90
14397;DHT22;50653;47.810;13.022;2023-10-19T02:29:12;9.40;99.90
14397;DHT22;50653;47.810;13.022;2023-10-19T02:31:43;9.30;99.90
14397;DHT22;50653;47.810;13.022;2023-10-19T02:34:11;9.40;99.90
14397;DHT22;50653;47.810;13.022;2023-10-19T02:36:40;9.30;99.90
14397;DHT22;50653;47.810;13.022;2023-10-19T02:39:08;9.20;99.90
14397;DHT22;50653;47.810;13.022;2023-10-19T02:44:12;9.20;99.90
14397;DHT22;50653;47.810;13.022;2023-10-19T02:49:12;9.10;99.90
14397;DHT22;50653;47.810;13.022;2023-10-19T02:51:43;9.10;99.90
14397;DHT22;50653;47.810;13.022;2023-10-19T02:54:11;9.10;99.90
14397;DHT22;50653;47.810;13.022;2023-10-19T02:56:48;9.00;99.90
14397;DHT22;50653;47.810;13.022;2023-10-19T02:59:19;9.00;99.90
14397;DHT22;50653;47.810;13.022;2023-10-19T03:01:49;9.00;99.90
14397;DHT22;50653;47.810;13.022;2023-10-19T03:04:16;9.00;99.90
14397;DHT22;50653;47.810;13.022;2023-10-19T03:06:42;8.80;99.90
14397;DHT22;50653;47.810;13.022;2023-10-19T03:09:09;8.80;99.90
14397;DHT22;50653;47.810;13.022;2023-10-19T03:11:48;8.80;99.90
14397;DHT22;50653;47.810;13.022;2023-10-19T03:14:17;8.80;99.90
14397;DHT22;50653;47.810;13.022;2023-10-19T03:16:43;8.60;99.90
14397;DHT22;50653;47.810;13.022;2023-10-19T03:19:09;8.70;99.90
14397;DHT22;50653;47.810;13.022;2023-10-19T03:21:35;8.70;99.90
14397;DHT22;50653;47.810;13.022;2023-10-19T03:24:14;8.70;99.90
14397;DHT22;50653;47.810;13.022;2023-10-19T03:27:11;8.60;99.90
14397;DHT22;50653;47.810;13.022;2023-10-19T03:29:51;8.70;99.90
14397;DHT22;50653;47.810;13.022;2023-10-19T03:32:21;8.60;99.90
14397;DHT22;50653;47.810;13.022;2023-10-19T03:34:55;8.70;99.90
14397;DHT22;50653;47.810;13.022;2023-10-19T03:37:27;8.60;99.90
14397;DHT22;50653;47.810;13.022;2023-10-19T03:39:56;8.60;99.90
14397;DHT22;50653;47.810;13.022;2023-10-19T03:42:22;8.60;99.90
14397;DHT22;50653;47.810;13.022;2023-10-19T03:44:53;8.60;99.90
14397;DHT22;50653;47.810;13.022;2023-10-19T03:47:19;8.60;99.90
14397;DHT22;50653;47.810;13.022;2023-10-19T03:49:52;8.60;99.90
14397;DHT22;50653;47.810;13.022;2023-10-19T03:52:19;8.70;99.90
14397;DHT22;50653;47.810;13.022;2023-10-19T03:54:45;8.70;99.90
14397;DHT22;50653;47.810;13.022;2023-10-19T03:57:13;8.80;99.90
14397;DHT22;50653;47.810;13.022;2023-10-19T03:59:47;8.70;99.90
14397;DHT22;50653;47.810;13.022;2023-10-19T04:02:16;8.80;99.90
14397;DHT22;50653;47.810;13.022;2023-10-19T04:04:45;8.70;99.90
14397;DHT22;50653;47.810;13.022;2023-10-19T04:07:15;8.70;99.90
14397;DHT22;50653;47.810;13.022;2023-10-19T04:09:43;8.70;99.90
14397;DHT22;50653;47.810;13.022;2023-10-19T04:12:27;8.70;99.90
14397;DHT22;50653;47.810;13.022;2023-10-19T04:14:57;8.60;99.90
14397;DHT22;50653;47.810;13.022;2023-10-19T04:17:23;8.70;99.90
14397;DHT22;50653;47.810;13.022;2023-10-19T04:19:50;8.70;99.90
14397;DHT22;50653;47.810;13.022;2023-10-19T04:22:17;8.70;99.90
14397;DHT22;50653;47.810;13.022;2023-10-19T04:24:53;8.60;99.90
14397;DHT22;50653;47.810;13.022;2023-10-19T04:27:19;8.70;99.90
14397;DHT22;50653;47.810;13.022;2023-10-19T04:29:48;8.50;99.90
14397;DHT22;50653;47.810;13.022;2023-10-19T04:32:16;8.40;99.90
14397;DHT22;50653;47.810;13.022;2023-10-19T04:34:50;8.40;99.90
14397;DHT22;50653;47.810;13.022;2023-10-19T04:37:16;8.30;99.90
14397;DHT22;50653;47.810;13.022;2023-10-19T04:39:45;8.50;99.90
14397;DHT22;50653;47.810;13.022;2023-10-19T04:42:10;8.40;99.90
14397;DHT22;50653;47.810;13.022;2023-10-19T04:44:37;8.40;99.90
14397;DHT22;50653;47.810;13.022;2023-10-19T04:47:03;8.30;99.90
14397;DHT22;50653;47.810;13.022;2023-10-19T04:49:28;8.30;99.90
14397;DHT22;50653;47.810;13.022;2023-10-19T04:51:54;8.20;99.90
14397;DHT22;50653;47.810;13.022;2023-10-19T04:54:20;8.20;99.90
14397;DHT22;50653;47.810;13.022;2023-10-19T04:56:45;8.20;99.90
14397;DHT22;50653;47.810;13.022;2023-10-19T04:59:11;8.20;99.90
14397;DHT22;50653;47.810;13.022;2023-10-19T05:01:37;8.20;99.90
14397;DHT22;50653;47.810;13.022;2023-10-19T05:04:03;8.30;99.90
14397;DHT22;50653;47.810;13.022;2023-10-19T05:06:28;8.30;99.90
14397;DHT22;50653;47.810;13.022;2023-10-19T05:08:54;8.40;99.90
14397;DHT22;50653;47.810;13.022;2023-10-19T05:11:20;8.40;99.90
14397;DHT22;50653;47.810;13.022;2023-10-19T05:13:46;8.30;99.90
14397;DHT22;50653;47.810;13.022;2023-10-19T05:16:11;8.30;99.90
14397;DHT22;50653;47.810;13.022;2023-10-19T05:18:37;8.20;99.90
14397;DHT22;50653;47.810;13.022;2023-10-19T05:21:04;8.30;99.90
14397;DHT22;50653;47.810;13.022;2023-10-19T05:23:30;8.30;99.90
14397;DHT22;50653;47.810;13.022;2023-10-19T05:26:04;8.30;99.90
14397;DHT22;50653;47.810;13.022;2023-10-19T05:28:30;8.30;99.90
14397;DHT22;50653;47.810;13.022;2023-10-19T05:30:56;8.40;99.90
14397;DHT22;50653;47.810;13.022;2023-10-19T05:33:24;8.40;99.90
14397;DHT22;50653;47.810;13.022;2023-10-19T05:35:50;8.40;99.90
14397;DHT22;50653;47.810;13.022;2023-10-19T05:38:17;8.50;99.90
14397;DHT22;50653;47.810;13.022;2023-10-19T05:40:44;8.60;99.90
14397;DHT22;50653;47.810;13.022;2023-10-19T05:43:10;8.60;99.90
14397;DHT22;50653;47.810;13.022;2023-10-19T05:45:37;8.40;99.90
14397;DHT22;50653;47.810;13.022;2023-10-19T05:48:03;8.50;99.90
14397;DHT22;50653;47.810;13.022;2023-10-19T05:50:33;8.60;99.90
14397;DHT22;50653;47.810;13.022;2023-10-19T05:52:59;8.50;99.90
14397;DHT22;50653;47.810;13.022;2023-10-19T05:55:26;8.60;99.90
14397;DHT22;50653;47.810;13.022;2023-10-19T05:57:51;8.60;99.90
14397;DHT22;50653;47.810;13.022;2023-10-19T06:00:17;8.70;99.90
14397;DHT22;50653;47.810;13.022;2023-10-19T06:02:46;8.60;99.90
14397;DHT22;50653;47.810;13.022;2023-10-19T06:05:13;8.70;99.90
14397;DHT22;50653;47.810;13.022;2023-10-19T06:07:47;8.70;99.90
14397;DHT22;50653;47.810;13.022;2023-10-19T06:10:18;8.70;99.90
14397;DHT22;50653;47.810;13.022;2023-10-19T06:12:48;8.70;99.90
14397;DHT22;50653;47.810;13.022;2023-10-19T06:15:14;8.70;99.90
14397;DHT22;50653;47.810;13.022;2023-10-19T06:17:41;8.80;99.90
14397;DHT22;50653;47.810;13.022;2023-10-19T06:20:08;8.90;99.90
14397;DHT22;50653;47.810;13.022;2023-10-19T06:22:49;9.00;99.90
14397;DHT22;50653;47.810;13.022;2023-10-19T06:25:20;9.10;99.90
14397;DHT22;50653;47.810;13.022;2023-10-19T06:27:47;9.10;99.90
14397;DHT22;50653;47.810;13.022;2023-10-19T06:30:14;9.20;99.90
14397;DHT22;50653;47.810;13.022;2023-10-19T06:32:55;9.20;99.90
14397;DHT22;50653;47.810;13.022;2023-10-19T06:35:21;9.20;99.90
14397;DHT22;50653;47.810;13.022;2023-10-19T06:37:48;9.30;99.90
14397;DHT22;50653;47.810;13.022;2023-10-19T06:40:15;9.40;99.90
14397;DHT22;50653;47.810;13.022;2023-10-19T06:42:45;9.40;99.90
14397;DHT22;50653;47.810;13.022;2023-10-19T06:45:12;9.40;99.90
14397;DHT22;50653;47.810;13.022;2023-10-19T06:47:46;9.50;99.90
14397;DHT22;50653;47.810;13.022;2023-10-19T06:50:17;9.50;99.90
14397;DHT22;50653;47.810;13.022;2023-10-19T06:52:44;9.60;99.90
14397;DHT22;50653;47.810;13.022;2023-10-19T06:55:10;9.60;99.90
14397;DHT22;50653;47.810;13.022;2023-10-19T06:57:41;9.70;99.90
14397;DHT22;50653;47.810;13.022;2023-10-19T07:00:10;9.70;99.90
14397;DHT22;50653;47.810;13.022;2023-10-19T07:02:40;9.80;99.90
14397;DHT22;50653;47.810;13.022;2023-10-19T07:05:07;9.80;99.90
14397;DHT22;50653;47.810;13.022;2023-10-19T07:07:37;9.90;99.90
14397;DHT22;50653;47.810;13.022;2023-10-19T07:10:14;10.00;99.90
14397;DHT22;50653;47.810;13.022;2023-10-19T07:12:42;10.10;99.90
14397;DHT22;50653;47.810;13.022;2023-10-19T07:15:08;10.10;99.90
14397;DHT22;50653;47.810;13.022;2023-10-19T07:17:37;10.10;99.90
14397;DHT22;50653;47.810;13.022;2023-10-19T07:20:05;10.20;99.90
14397;DHT22;50653;47.810;13.022;2023-10-19T07:22:37;10.20;99.90
14397;DHT22;50653;47.810;13.022;2023-10-19T07:25:08;10.20;99.90
14397;DHT22;50653;47.810;13.022;2023-10-19T07:27:34;10.30;99.90
14397;DHT22;50653;47.810;13.022;2023-10-19T07:30:03;10.40;99.90
14397;DHT22;50653;47.810;13.022;2023-10-19T07:32:34;10.40;99.90
14397;DHT22;50653;47.810;13.022;2023-10-19T07:35:00;10.40;99.90
14397;DHT22;50653;47.810;13.022;2023-10-19T07:37:26;10.40;99.90
14397;DHT22;50653;47.810;13.022;2023-10-19T07:39:53;10.50;99.90
14397;DHT22;50653;47.810;13.022;2023-10-19T07:42:22;10.50;99.90
14397;DHT22;50653;47.810;13.022;2023-10-19T07:44:48;10.60;99.90
14397;DHT22;50653;47.810;13.022;2023-10-19T07:47:14;10.60;99.90
14397;DHT22;50653;47.810;13.022;2023-10-19T07:49:40;10.70;99.90
14397;DHT22;50653;47.810;13.022;2023-10-19T07:52:07;10.70;99.90
14397;DHT22;50653;47.810;13.022;2023-10-19T07:54:34;10.70;99.90
14397;DHT22;50653;47.810;13.022;2023-10-19T07:57:03;10.80;99.90
14397;DHT22;50653;47.810;13.022;2023-10-19T07:59:32;10.80;99.90
14397;DHT22;50653;47.810;13.022;2023-10-19T08:01:59;10.90;99.90
14397;DHT22;50653;47.810;13.022;2023-10-19T08:04:31;10.90;99.90
14397;DHT22;50653;47.810;13.022;2023-10-19T08:06:57;11.00;99.90
14397;DHT22;50653;47.810;13.022;2023-10-19T08:09:24;11.00;99.90
14397;DHT22;50653;47.810;13.022;2023-10-19T08:11:52;11.10;99.90
14397;DHT22;50653;47.810;13.022;2023-10-19T08:14:27;11.10;99.90
14397;DHT22;50653;47.810;13.022;2023-10-19T08:16:53;11.10;99.90
14397;DHT22;50653;47.810;13.022;2023-10-19T08:19:19;11.10;99.90
14397;DHT22;50653;47.810;13.022;2023-10-19T08:21:46;11.20;99.90
14397;DHT22;50653;47.810;13.022;2023-10-19T08:24:12;11.30;99.90
14397;DHT22;50653;47.810;13.022;2023-10-19T08:26:44;11.40;99.90
14397;DHT22;50653;47.810;13.022;2023-10-19T08:29:11;11.50;99.90
14397;DHT22;50653;47.810;13.022;2023-10-19T08:31:42;11.60;99.90
14397;DHT22;50653;47.810;13.022;2023-10-19T08:34:11;11.60;99.90
14397;DHT22;50653;47.810;13.022;2023-10-19T08:36:37;11.70;99.90
14397;DHT22;50653;47.810;13.022;2023-10-19T08:39:05;11.80;99.90
14397;DHT22;50653;47.810;13.022;2023-10-19T08:41:40;11.90;99.90
14397;DHT22;50653;47.810;13.022;2023-10-19T08:44:07;12.00;99.90
14397;DHT22;50653;47.810;13.022;2023-10-19T08:46:43;12.10;99.90
14397;DHT22;50653;47.810;13.022;2023-10-19T08:49:12;12.10;99.90
14397;DHT22;50653;47.810;13.022;2023-10-19T08:51:38;12.10;99.90
14397;DHT22;50653;47.810;13.022;2023-10-19T08:54:05;12.20;99.90
14397;DHT22;50653;47.810;13.022;2023-10-19T08:56:32;12.20;99.90
14397;DHT22;50653;47.810;13.022;2023-10-19T08:58:59;12.20;99.90
14397;DHT22;50653;47.810;13.022;2023-10-19T09:01:27;12.20;99.90
14397;DHT22;50653;47.810;13.022;2023-10-19T09:03:59;12.10;99.90
14397;DHT22;50653;47.810;13.022;2023-10-19T09:06:26;12.10;99.90
14397;DHT22;50653;47.810;13.022;2023-10-19T09:08:55;12.10;99.90
14397;DHT22;50653;47.810;13.022;2023-10-19T09:11:24;12.20;99.90
14397;DHT22;50653;47.810;13.022;2023-10-19T09:13:53;12.20;99.90
14397;DHT22;50653;47.810;13.022;2023-10-19T09:16:20;12.20;99.90
14397;DHT22;50653;47.810;13.022;2023-10-19T09:18:47;12.20;99.90
14397;DHT22;50653;47.810;13.022;2023-10-19T09:21:17;12.30;99.90
14397;DHT22;50653;47.810;13.022;2023-10-19T09:23:53;12.30;99.90
14397;DHT22;50653;47.810;13.022;2023-10-19T09:26:20;12.30;99.90
14397;DHT22;50653;47.810;13.022;2023-10-19T09:28:52;12.40;99.90
14397;DHT22;50653;47.810;13.022;2023-10-19T09:31:19;12.40;99.90
14397;DHT22;50653;47.810;13.022;2023-10-19T09:33:47;12.60;99.90
14397;DHT22;50653;47.810;13.022;2023-10-19T09:36:14;12.60;99.90
14397;DHT22;50653;47.810;13.022;2023-10-19T09:38:48;12.60;99.90
14397;DHT22;50653;47.810;13.022;2023-10-19T09:41:17;12.70;99.90
14397;DHT22;50653;47.810;13.022;2023-10-19T09:43:45;12.80;99.90
14397;DHT22;50653;47.810;13.022;2023-10-19T09:46:12;12.90;99.90
14397;DHT22;50653;47.810;13.022;2023-10-19T09:48:47;13.00;99.90
14397;DHT22;50653;47.810;13.022;2023-10-19T09:51:14;13.10;99.90
14397;DHT22;50653;47.810;13.022;2023-10-19T09:53:44;13.20;99.90
14397;DHT22;50653;47.810;13.022;2023-10-19T09:56:17;13.30;99.90
14397;DHT22;50653;47.810;13.022;2023-10-19T09:58:57;13.40;99.90
14397;DHT22;50653;47.810;13.022;2023-10-19T10:01:24;13.50;99.90
14397;DHT22;50653;47.810;13.022;2023-10-19T10:03:52;13.50;99.90
14397;DHT22;50653;47.810;13.022;2023-10-19T10:09:17;13.50;99.90
14397;DHT22;50653;47.810;13.022;2023-10-19T10:11:55;13.60;99.90
14397;DHT22;50653;47.810;13.022;2023-10-19T10:14:25;13.70;99.90
14397;DHT22;50653;47.810;13.022;2023-10-19T10:17:03;13.70;99.90
14397;DHT22;50653;47.810;13.022;2023-10-19T10:19:31;13.80;99.90
14397;DHT22;50653;47.810;13.022;2023-10-19T10:22:23;13.90;99.90
14397;DHT22;50653;47.810;13.022;2023-10-19T10:24:54;13.90;99.90
14397;DHT22;50653;47.810;13.022;2023-10-19T10:27:23;13.80;99.90
14397;DHT22;50653;47.810;13.022;2023-10-19T10:29:59;13.90;99.90
14397;DHT22;50653;47.810;13.022;2023-10-19T10:35:53;13.90;99.90
14397;DHT22;50653;47.810;13.022;2023-10-19T10:38:16;13.90;99.90
14397;DHT22;50653;47.810;13.022;2023-10-19T10:43:11;14.00;99.90
14397;DHT22;50653;47.810;13.022;2023-10-19T10:45:37;14.10;99.90
14397;DHT22;50653;47.810;13.022;2023-10-19T10:48:03;14.30;99.90
14397;DHT22;50653;47.810;13.022;2023-10-19T10:50:29;14.30;99.90
14397;DHT22;50653;47.810;13.022;2023-10-19T10:52:55;14.30;99.90
14397;DHT22;50653;47.810;13.022;2023-10-19T10:55:23;14.30;99.90
14397;DHT22;50653;47.810;13.022;2023-10-19T10:57:50;14.30;99.90
14397;DHT22;50653;47.810;13.022;2023-10-19T11:00:16;14.30;99.90
14397;DHT22;50653;47.810;13.022;2023-10-19T11:02:45;14.40;99.90
14397;DHT22;50653;47.810;13.022;2023-10-19T11:05:16;14.50;99.90
14397;DHT22;50653;47.810;13.022;2023-10-19T11:08:07;14.60;99.90
14397;DHT22;50653;47.810;13.022;2023-10-19T11:10:34;14.50;99.90
14397;DHT22;50653;47.810;13.022;2023-10-19T11:13:07;14.60;99.90
14397;DHT22;50653;47.810;13.022;2023-10-19T11:15:34;14.50;99.90
14397;DHT22;50653;47.810;13.022;2023-10-19T11:18:00;14.50;99.90
14397;DHT22;50653;47.810;13.022;2023-10-19T11:20:27;14.60;99.90
14397;DHT22;50653;47.810;13.022;2023-10-19T11:22:53;14.80;99.90
14397;DHT22;50653;47.810;13.022;2023-10-19T11:25:26;14.80;99.90
14397;DHT22;50653;47.810;13.022;2023-10-19T11:27:55;14.90;99.90
14397;DHT22;50653;47.810;13.022;2023-10-19T11:30:25;14.90;99.90
14397;DHT22;50653;47.810;13.022;2023-10-19T11:32:50;14.90;99.90
14397;DHT22;50653;47.810;13.022;2023-10-19T11:35:22;14.90;99.90
14397;DHT22;50653;47.810;13.022;2023-10-19T11:37:52;14.80;99.90
14397;DHT22;50653;47.810;13.022;2023-10-19T11:40:22;14.90;99.90
14397;DHT22;50653;47.810;13.022;2023-10-19T11:42:49;15.10;99.90
14397;DHT22;50653;47.810;13.022;2023-10-19T11:45:15;15.30;99.90
14397;DHT22;50653;47.810;13.022;2023-10-19T11:47:43;15.40;99.90
14397;DHT22;50653;47.810;13.022;2023-10-19T11:50:09;15.40;99.90
14397;DHT22;50653;47.810;13.022;2023-10-19T11:52:37;15.60;99.90
14397;DHT22;50653;47.810;13.022;2023-10-19T11:55:03;15.60;99.90
14397;DHT22;50653;47.810;13.022;2023-10-19T11:57:31;15.80;99.90
14397;DHT22;50653;47.810;13.022;2023-10-19T11:59:56;15.80;99.90
14397;DHT22;50653;47.810;13.022;2023-10-19T12:02:24;15.70;99.90
14397;DHT22;50653;47.810;13.022;2023-10-19T12:04:50;15.60;99.90
14397;DHT22;50653;47.810;13.022;2023-10-19T12:07:16;15.60;99.90
14397;DHT22;50653;47.810;13.022;2023-10-19T12:09:41;15.70;99.90
14397;DHT22;50653;47.810;13.022;2023-10-19T12:12:08;15.70;99.90
14397;DHT22;50653;47.810;13.022;2023-10-19T12:14:36;15.70;99.90
14397;DHT22;50653;47.810;13.022;2023-10-19T12:17:02;15.70;99.90
14397;DHT22;50653;47.810;13.022;2023-10-19T12:19:29;15.90;99.90
14397;DHT22;50653;47.810;13.022;2023-10-19T12:21:56;16.00;99.90
14397;DHT22;50653;47.810;13.022;2023-10-19T12:24:21;16.00;99.90
14397;DHT22;50653;47.810;13.022;2023-10-19T12:26:48;16.30;99.90
14397;DHT22;50653;47.810;13.022;2023-10-19T12:29:14;16.60;99.90
14397;DHT22;50653;47.810;13.022;2023-10-19T12:31:43;16.70;99.90
14397;DHT22;50653;47.810;13.022;2023-10-19T12:34:08;16.70;99.90
14397;DHT22;50653;47.810;13.022;2023-10-19T12:36:36;16.80;99.90
14397;DHT22;50653;47.810;13.022;2023-10-19T12:39:03;16.80;99.90
14397;DHT22;50653;47.810;13.022;2023-10-19T12:41:31;16.80;99.90
14397;DHT22;50653;47.810;13.022;2023-10-19T12:43:57;16.70;99.90
14397;DHT22;50653;47.810;13.022;2023-10-19T12:46:24;16.70;99.90
14397;DHT22;50653;47.810;13.022;2023-10-19T12:48:51;16.70;99.90
14397;DHT22;50653;47.810;13.022;2023-10-19T12:51:17;17.10;99.90
14397;DHT22;50653;47.810;13.022;2023-10-19T12:53:50;17.10;99.90
14397;DHT22;50653;47.810;13.022;2023-10-19T12:56:17;17.20;99.90
14397;DHT22;50653;47.810;13.022;2023-10-19T12:58:43;17.20;99.90
14397;DHT22;50653;47.810;13.022;2023-10-19T13:01:09;17.40;99.90
14397;DHT22;50653;47.810;13.022;2023-10-19T13:03:42;17.50;99.90
14397;DHT22;50653;47.810;13.022;2023-10-19T13:06:11;17.40;99.90
14397;DHT22;50653;47.810;13.022;2023-10-19T13:08:38;17.60;99.90
14397;DHT22;50653;47.810;13.022;2023-10-19T13:11:09;17.60;99.90
14397;DHT22;50653;47.810;13.022;2023-10-19T13:13:41;17.70;99.90
14397;DHT22;50653;47.810;13.022;2023-10-19T13:16:06;17.90;99.90
14397;DHT22;50653;47.810;13.022;2023-10-19T13:18:35;18.10;99.90
14397;DHT22;50653;47.810;13.022;2023-10-19T13:21:01;18.20;99.90
14397;DHT22;50653;47.810;13.022;2023-10-19T13:23:36;18.10;99.90
14397;DHT22;50653;47.810;13.022;2023-10-19T13:26:02;18.00;99.90
14397;DHT22;50653;47.810;13.022;2023-10-19T13:28:35;18.00;99.90
14397;DHT22;50653;47.810;13.022;2023-10-19T13:31:04;18.20;99.90
14397;DHT22;50653;47.810;13.022;2023-10-19T13:33:29;18.20;99.90
14397;DHT22;50653;47.810;13.022;2023-10-19T13:35:55;18.30;99.90
14397;DHT22;50653;47.810;13.022;2023-10-19T13:38:21;18.20;99.90
14397;DHT22;50653;47.810;13.022;2023-10-19T13:40:47;18.00;99.90
14397;DHT22;50653;47.810;13.022;2023-10-19T13:43:14;18.20;99.90
14397;DHT22;50653;47.810;13.022;2023-10-19T13:45:40;18.10;99.90
14397;DHT22;50653;47.810;13.022;2023-10-19T13:48:07;18.20;99.90
14397;DHT22;50653;47.810;13.022;2023-10-19T13:50:35;18.30;99.90
14397;DHT22;50653;47.810;13.022;2023-10-19T13:53:02;18.50;99.90
14397;DHT22;50653;47.810;13.022;2023-10-19T13:55:30;18.50;99.90
14397;DHT22;50653;47.810;13.022;2023-10-19T13:57:57;18.50;99.90
14397;DHT22;50653;47.810;13.022;2023-10-19T14:00:23;18.60;99.90
14397;DHT22;50653;47.810;13.022;2023-10-19T14:03:05;18.70;99.90
14397;DHT22;50653;47.810;13.022;2023-10-19T14:05:36;18.70;99.90
14397;DHT22;50653;47.810;13.022;2023-10-19T14:08:03;18.70;99.90
14397;DHT22;50653;47.810;13.022;2023-10-19T14:10:33;18.80;99.90
14397;DHT22;50653;47.810;13.022;2023-10-19T14:12:59;18.70;99.90
14397;DHT22;50653;47.810;13.022;2023-10-19T14:15:25;18.70;99.90
14397;DHT22;50653;47.810;13.022;2023-10-19T14:17:56;18.60;99.90
14397;DHT22;50653;47.810;13.022;2023-10-19T14:20:24;18.40;99.90
14397;DHT22;50653;47.810;13.022;2023-10-19T14:22:51;18.40;99.90
14397;DHT22;50653;47.810;13.022;2023-10-19T14:25:21;18.40;99.90
14397;DHT22;50653;47.810;13.022;2023-10-19T14:27:49;18.40;99.90
14397;DHT22;50653;47.810;13.022;2023-10-19T14:30:17;18.50;99.90
14397;DHT22;50653;47.810;13.022;2023-10-19T14:32:45;18.50;99.90
14397;DHT22;50653;47.810;13.022;2023-10-19T14:35:13;18.40;99.90
14397;DHT22;50653;47.810;13.022;2023-10-19T14:37:46;18.40;99.90
14397;DHT22;50653;47.810;13.022;2023-10-19T14:40:14;18.40;99.90
14397;DHT22;50653;47.810;13.022;2023-10-19T14:42:43;18.40;99.90
14397;DHT22;50653;47.810;13.022;2023-10-19T14:45:11;18.30;99.90
14397;DHT22;50653;47.810;13.022;2023-10-19T14:47:40;18.30;99.90
14397;DHT22;50653;47.810;13.022;2023-10-19T14:50:13;18.30;99.90
14397;DHT22;50653;47.810;13.022;2023-10-19T14:52:42;18.20;99.90
14397;DHT22;50653;47.810;13.022;2023-10-19T14:55:09;18.20;99.90
14397;DHT22;50653;47.810;13.022;2023-10-19T14:57:36;18.00;99.90
14397;DHT22;50653;47.810;13.022;2023-10-19T15:00:06;17.90;99.90
14397;DHT22;50653;47.810;13.022;2023-10-19T15:02:47;17.90;99.90
14397;DHT22;50653;47.810;13.022;2023-10-19T15:05:13;17.80;99.90
14397;DHT22;50653;47.810;13.022;2023-10-19T15:07:46;17.70;99.90
14397;DHT22;50653;47.810;13.022;2023-10-19T15:10:13;17.70;99.90
14397;DHT22;50653;47.810;13.022;2023-10-19T15:12:39;17.70;99.90
14397;DHT22;50653;47.810;13.022;2023-10-19T15:15:06;17.60;99.90
14397;DHT22;50653;47.810;13.022;2023-10-19T15:17:33;17.60;99.90
14397;DHT22;50653;47.810;13.022;2023-10-19T15:19:59;17.60;99.90
14397;DHT22;50653;47.810;13.022;2023-10-19T15:22:25;17.60;99.90
14397;DHT22;50653;47.810;13.022;2023-10-19T15:24:51;17.60;99.90
14397;DHT22;50653;47.810;13.022;2023-10-19T15:27:20;17.50;99.90
14397;DHT22;50653;47.810;13.022;2023-10-19T15:29:45;17.50;99.90
14397;DHT22;50653;47.810;13.022;2023-10-19T15:32:11;17.50;99.90
14397;DHT22;50653;47.810;13.022;2023-10-19T15:34:37;17.40;99.90
14397;DHT22;50653;47.810;13.022;2023-10-19T15:37:02;17.30;99.90
14397;DHT22;50653;47.810;13.022;2023-10-19T15:39:28;17.30;99.90
14397;DHT22;50653;47.810;13.022;2023-10-19T15:41:54;17.30;99.90
14397;DHT22;50653;47.810;13.022;2023-10-19T15:44:19;17.30;99.90
14397;DHT22;50653;47.810;13.022;2023-10-19T15:46:45;17.20;99.90
14397;DHT22;50653;47.810;13.022;2023-10-19T15:49:14;17.10;99.90
14397;DHT22;50653;47.810;13.022;2023-10-19T15:51:40;17.10;99.90